createdAt,value
2023-04-07T00:01:00.403Z,47.32
2023-04-07T00:03:02.616Z,47.23
2023-04-07T00:05:04.497Z,46.99
2023-04-07T00:07:06.134Z,47.49
2023-04-07T00:09:07.623Z,46.87
2023-04-07T00:11:09.089Z,47.16
2023-04-07T00:13:10.568Z,46.81
2023-04-07T00:15:12.131Z,47.29
2023-04-07T00:17:13.598Z,46.85
2023-04-07T00:19:15.042Z,47.63
2023-04-07T00:21:16.515Z,47.70
2023-04-07T00:23:18.034Z,47.82
2023-04-07T00:25:19.485Z,47.55
2023-04-07T00:27:21.137Z,47.83
2023-04-07T00:29:22.610Z,47.62
2023-04-07T00:31:24.103Z,47.67
2023-04-07T00:33:26.099Z,47.90
2023-04-07T00:35:27.694Z,47.78
2023-04-07T00:37:29.267Z,47.73
2023-04-07T00:39:31.507Z,48.10
2023-04-07T00:41:34.255Z,48.21
2023-04-07T00:43:35.744Z,47.75
2023-04-07T00:45:37.883Z,47.55
2023-04-07T00:47:39.401Z,47.81
2023-04-07T00:49:41.016Z,48.03
2023-04-07T00:51:42.457Z,47.87
2023-04-07T00:53:44.030Z,47.45
2023-04-07T00:55:45.854Z,47.78
2023-04-07T00:57:47.299Z,47.91
2023-04-07T00:59:49.797Z,47.58
2023-04-07T01:01:55.511Z,47.32
2023-04-07T01:04:07.591Z,47.80
2023-04-07T01:06:09.158Z,47.87
2023-04-07T01:08:15.642Z,48.10
2023-04-07T01:10:25.442Z,47.33
2023-04-07T01:12:42.224Z,47.71
2023-04-07T01:14:47.458Z,47.82
2023-04-07T01:16:53.791Z,47.85
2023-04-07T01:18:58.000Z,47.91
2023-04-07T01:21:02.045Z,47.48
2023-04-07T01:23:04.685Z,47.34
2023-04-07T01:25:24.969Z,47.92
2023-04-07T01:27:29.290Z,47.23
2023-04-07T01:29:41.518Z,47.15
2023-04-07T01:31:43.225Z,47.41
2023-04-07T01:33:46.248Z,47.36
2023-04-07T01:35:48.276Z,46.81
2023-04-07T01:37:50.694Z,46.69
2023-04-07T01:39:52.143Z,46.54
2023-04-07T01:41:53.747Z,47.19
2023-04-07T01:43:55.918Z,47.36
2023-04-07T01:45:57.635Z,46.45
2023-04-07T01:47:59.344Z,46.45
2023-04-07T01:50:01.521Z,46.46
2023-04-07T01:52:03.023Z,46.50
2023-04-07T01:54:04.620Z,46.42
2023-04-07T01:56:06.331Z,46.59
2023-04-07T01:58:07.809Z,46.20
2023-04-07T02:00:09.431Z,45.53
2023-04-07T02:02:10.985Z,45.64
2023-04-07T02:04:13.304Z,45.70
2023-04-07T02:06:20.729Z,45.51
2023-04-07T02:08:22.246Z,46.12
2023-04-07T02:10:24.304Z,45.33
2023-04-07T02:12:26.740Z,45.53
2023-04-07T02:14:28.301Z,45.75
2023-04-07T02:16:32.851Z,44.80
2023-04-07T02:18:34.379Z,45.28
2023-04-07T02:20:35.855Z,45.01
2023-04-07T02:22:37.891Z,44.52
2023-04-07T02:24:41.688Z,44.74
2023-04-07T02:26:43.335Z,44.67
2023-04-07T02:28:44.829Z,44.18
2023-04-07T02:30:46.325Z,44.22
2023-04-07T02:32:47.932Z,45.06
2023-04-07T02:34:49.487Z,44.26
2023-04-07T02:36:51.178Z,44.15
2023-04-07T02:38:52.688Z,44.82
2023-04-07T02:40:54.271Z,44.35
2023-04-07T02:42:55.745Z,44.62
2023-04-07T02:44:57.316Z,45.26
2023-04-07T02:46:58.808Z,45.07
2023-04-07T02:49:00.266Z,44.61
2023-04-07T02:51:01.739Z,45.21
2023-04-07T02:53:03.235Z,44.98
2023-04-07T02:55:04.838Z,44.40
2023-04-07T02:57:06.314Z,43.83
2023-04-07T02:59:07.864Z,44.29
2023-04-07T03:01:09.492Z,44.47
2023-04-07T03:03:11.082Z,44.44
2023-04-07T03:05:12.711Z,44.76
2023-04-07T03:07:14.207Z,44.43
2023-04-07T03:09:15.723Z,44.48
2023-04-07T03:11:17.226Z,44.56
2023-04-07T03:13:19.783Z,43.95
2023-04-07T03:15:21.551Z,44.65
2023-04-07T03:17:23.070Z,44.20
2023-04-07T03:19:24.660Z,44.70
2023-04-07T03:21:26.161Z,44.28
2023-04-07T03:23:29.403Z,44.11
2023-04-07T03:25:31.374Z,44.35
2023-04-07T03:27:32.833Z,44.43
2023-04-07T03:29:34.299Z,44.13
2023-04-07T03:31:37.738Z,44.06
2023-04-07T03:33:39.291Z,44.84
2023-04-07T03:35:41.277Z,44.07
2023-04-07T03:37:42.950Z,44.11
2023-04-07T03:39:44.422Z,43.80
2023-04-07T03:41:45.906Z,44.10
2023-04-07T03:43:47.485Z,44.13
2023-04-07T03:45:48.980Z,44.43
2023-04-07T03:47:50.619Z,44.29
2023-04-07T03:49:52.178Z,44.29
2023-04-07T03:51:53.733Z,44.90
2023-04-07T03:53:55.393Z,44.21
2023-04-07T03:55:56.894Z,44.25
2023-04-07T03:57:58.402Z,44.31
2023-04-07T03:59:59.947Z,44.43
2023-04-07T04:02:01.964Z,44.34
2023-04-07T04:04:03.714Z,44.35
2023-04-07T04:06:05.927Z,44.67
2023-04-07T04:08:07.533Z,44.75
2023-04-07T04:10:09.371Z,45.10
2023-04-07T04:12:10.858Z,44.38
2023-04-07T04:14:12.560Z,44.94
2023-04-07T04:16:15.222Z,44.74
2023-04-07T04:18:16.936Z,44.36
2023-04-07T04:20:18.575Z,44.97
2023-04-07T04:22:20.045Z,44.42
2023-04-07T04:24:21.642Z,44.36
2023-04-07T04:26:26.195Z,43.69
2023-04-07T04:28:27.763Z,44.54
2023-04-07T04:30:29.257Z,44.55
2023-04-07T04:32:30.820Z,43.54
2023-04-07T04:34:32.652Z,43.79
2023-04-07T04:36:34.417Z,43.95
2023-04-07T04:38:36.949Z,44.18
2023-04-07T04:40:38.445Z,43.90
2023-04-07T04:42:40.024Z,44.10
2023-04-07T04:44:41.522Z,44.14
2023-04-07T04:46:43.123Z,43.96
2023-04-07T04:48:44.670Z,43.72
2023-04-07T04:50:46.191Z,43.70
2023-04-07T04:52:47.721Z,43.07
2023-04-07T04:54:49.321Z,43.51
2023-04-07T04:56:51.210Z,42.76
2023-04-07T04:58:52.740Z,42.67
2023-04-07T05:00:58.330Z,42.95
2023-04-07T05:03:00.326Z,43.04
2023-04-07T05:05:02.318Z,43.29
2023-04-07T05:07:04.202Z,42.95
2023-04-07T05:09:05.971Z,42.33
2023-04-07T05:11:07.474Z,43.07
2023-04-07T05:13:08.912Z,42.83
2023-04-07T05:15:10.676Z,43.32
2023-04-07T05:17:12.158Z,42.95
2023-04-07T05:19:13.738Z,43.00
2023-04-07T05:21:15.462Z,42.95
2023-04-07T05:23:16.939Z,42.59
2023-04-07T05:25:18.413Z,43.21
2023-04-07T05:27:19.964Z,46.74
2023-04-07T05:29:21.449Z,45.64
2023-04-07T05:31:23.024Z,44.16
2023-04-07T05:33:24.530Z,48.98
2023-04-07T05:35:26.033Z,51.41
2023-04-07T05:37:27.581Z,51.74
2023-04-07T05:39:29.086Z,50.27
2023-04-07T05:41:30.614Z,48.51
2023-04-07T05:43:32.119Z,45.70
2023-04-07T05:45:33.684Z,43.71
2023-04-07T05:47:35.457Z,43.76
2023-04-07T05:49:37.084Z,42.85
2023-04-07T05:51:38.559Z,43.05
2023-04-07T05:53:40.170Z,42.25
2023-04-07T05:55:44.471Z,42.06
2023-04-07T05:57:46.211Z,42.75
2023-04-07T05:59:47.704Z,42.35
2023-04-07T06:01:49.375Z,42.68
2023-04-07T06:03:51.071Z,42.21
2023-04-07T06:05:52.733Z,41.67
2023-04-07T06:07:54.569Z,41.27
2023-04-07T06:09:56.108Z,41.34
2023-04-07T06:11:57.778Z,40.71
2023-04-07T06:13:59.274Z,40.00
2023-04-07T06:16:01.109Z,39.85
2023-04-07T06:18:02.659Z,40.22
2023-04-07T06:20:04.404Z,40.31
2023-04-07T06:22:05.910Z,40.51
2023-04-07T06:24:07.515Z,39.76
2023-04-07T06:26:12.323Z,39.88
2023-04-07T06:28:13.883Z,39.88
2023-04-07T06:30:15.750Z,39.69
2023-04-07T06:32:17.251Z,39.51
2023-04-07T06:34:18.805Z,39.62
2023-04-07T06:36:21.224Z,39.15
2023-04-07T06:38:22.840Z,39.04
2023-04-07T06:40:24.349Z,38.90
2023-04-07T06:42:25.832Z,38.90
2023-04-07T06:44:27.364Z,38.26
2023-04-07T06:46:29.214Z,38.23
2023-04-07T06:48:30.893Z,38.18
2023-04-07T06:50:32.318Z,38.11
2023-04-07T06:52:33.822Z,38.26
2023-04-07T06:54:35.415Z,37.99
2023-04-07T06:56:37.082Z,38.05
2023-04-07T06:58:38.778Z,38.19
2023-04-07T07:00:40.567Z,38.20
2023-04-07T07:02:42.131Z,38.01
2023-04-07T07:04:43.674Z,37.79
2023-04-07T07:06:45.310Z,37.81
2023-04-07T07:08:46.863Z,37.51
2023-04-07T07:10:48.437Z,37.87
2023-04-07T07:12:51.206Z,37.88
2023-04-07T07:14:52.747Z,37.42
2023-04-07T07:16:54.204Z,37.35
2023-04-07T07:18:55.663Z,37.40
2023-04-07T07:20:57.111Z,37.54
2023-04-07T07:22:59.860Z,37.38
2023-04-07T07:25:01.485Z,37.98
2023-04-07T07:27:03.578Z,38.48
2023-04-07T07:29:05.081Z,38.30
2023-04-07T07:31:10.554Z,38.26
2023-04-07T07:33:12.227Z,38.34
2023-04-07T07:35:13.705Z,38.54
2023-04-07T07:37:16.071Z,38.42
2023-04-07T07:39:17.614Z,38.03
2023-04-07T07:41:19.138Z,37.89
2023-04-07T07:43:20.658Z,37.88
2023-04-07T07:45:22.362Z,37.38
2023-04-07T07:47:24.020Z,38.05
2023-04-07T07:49:25.572Z,37.87
2023-04-07T07:51:28.101Z,38.32
2023-04-07T07:53:29.570Z,37.85
2023-04-07T07:55:31.278Z,37.93
2023-04-07T07:57:32.859Z,37.41
2023-04-07T07:59:34.350Z,38.09
2023-04-07T08:01:36.026Z,37.39
2023-04-07T08:03:38.248Z,37.70
2023-04-07T08:05:40.010Z,38.17
2023-04-07T08:07:43.159Z,37.66
2023-04-07T08:09:44.735Z,37.62
2023-04-07T08:11:48.366Z,36.89
2023-04-07T08:13:50.134Z,37.30
2023-04-07T08:15:51.909Z,37.10
2023-04-07T08:17:54.820Z,37.10
2023-04-07T08:19:57.735Z,36.92
2023-04-07T08:21:59.293Z,37.50
2023-04-07T08:24:01.123Z,37.01
2023-04-07T08:26:02.618Z,36.78
2023-04-07T08:28:04.248Z,37.02
2023-04-07T08:30:09.209Z,37.31
2023-04-07T08:32:10.924Z,37.38
2023-04-07T08:34:13.717Z,37.11
2023-04-07T08:36:15.262Z,37.84
2023-04-07T08:38:17.732Z,36.76
2023-04-07T08:40:19.255Z,36.74
2023-04-07T08:42:20.981Z,36.71
2023-04-07T08:44:22.777Z,37.04
2023-04-07T08:46:24.389Z,36.50
2023-04-07T08:48:27.256Z,36.45
2023-04-07T08:50:28.788Z,36.45
2023-04-07T08:52:39.038Z,36.65
2023-04-07T08:54:40.827Z,36.72
2023-04-07T08:56:42.929Z,35.87
2023-04-07T08:58:44.810Z,36.41
2023-04-07T09:00:46.865Z,36.36
2023-04-07T09:02:49.579Z,35.99
2023-04-07T09:04:51.947Z,35.96
2023-04-07T09:06:53.392Z,35.56
2023-04-07T09:08:55.409Z,35.20
2023-04-07T09:10:57.166Z,35.80
2023-04-07T09:12:59.601Z,34.77
2023-04-07T09:15:01.216Z,35.12
2023-04-07T09:17:02.752Z,35.47
2023-04-07T09:19:04.226Z,35.33
2023-04-07T09:21:06.076Z,35.88
2023-04-07T09:23:07.598Z,35.76
2023-04-07T09:25:11.976Z,36.12
2023-04-07T09:27:17.021Z,35.95
2023-04-07T09:29:22.501Z,35.29
2023-04-07T09:31:26.464Z,35.44
2023-04-07T09:33:28.309Z,35.22
2023-04-07T09:35:30.044Z,36.17
2023-04-07T09:37:31.719Z,36.05
2023-04-07T09:39:33.336Z,37.06
2023-04-07T09:41:34.955Z,37.03
2023-04-07T09:43:38.285Z,37.10
2023-04-07T09:45:39.776Z,37.40
2023-04-07T09:47:41.273Z,37.10
2023-04-07T09:49:55.141Z,38.02
2023-04-07T09:51:57.639Z,37.65
2023-04-07T09:53:59.251Z,37.76
2023-04-07T09:56:01.049Z,38.04
2023-04-07T09:58:02.654Z,38.36
2023-04-07T10:00:04.384Z,38.76
2023-04-07T10:02:06.546Z,37.91
2023-04-07T10:04:08.211Z,38.76
2023-04-07T10:06:10.451Z,37.38
2023-04-07T10:08:12.261Z,37.17
2023-04-07T10:10:13.868Z,37.20
2023-04-07T10:12:15.506Z,38.14
2023-04-07T10:14:17.052Z,38.49
2023-04-07T10:16:18.549Z,39.47
2023-04-07T10:18:20.834Z,39.69
2023-04-07T10:20:22.287Z,39.72
2023-04-07T10:22:24.335Z,38.73
2023-04-07T10:24:31.987Z,38.34
2023-04-07T10:26:33.783Z,39.42
2023-04-07T10:28:35.745Z,39.86
2023-04-07T10:30:37.711Z,39.19
2023-04-07T10:32:49.170Z,39.03
2023-04-07T10:34:50.648Z,38.88
2023-04-07T10:37:11.094Z,38.94
2023-04-07T10:39:12.606Z,40.00
2023-04-07T10:41:34.418Z,41.01
2023-04-07T10:43:44.212Z,41.17
2023-04-07T10:45:48.935Z,41.40
2023-04-07T10:48:02.994Z,42.76
2023-04-07T10:50:20.723Z,42.99
2023-04-07T10:52:23.257Z,43.83
2023-04-07T10:54:29.084Z,43.87
2023-04-07T10:56:51.023Z,44.06
2023-04-07T10:59:12.844Z,44.41
2023-04-07T11:01:14.373Z,44.34
2023-04-07T11:03:16.127Z,44.29
2023-04-07T11:05:21.700Z,43.30
2023-04-07T11:07:43.046Z,43.04
2023-04-07T11:09:44.830Z,43.60
2023-04-07T11:11:48.750Z,44.37
2023-04-07T11:13:51.080Z,44.77
2023-04-07T11:15:52.939Z,44.53
2023-04-07T11:18:10.582Z,44.14
2023-04-07T11:20:12.152Z,44.23
2023-04-07T11:22:28.722Z,44.18
2023-04-07T11:24:40.558Z,44.33
2023-04-07T11:26:42.140Z,44.88
2023-04-07T11:28:49.603Z,44.46
2023-04-07T11:30:52.876Z,44.34
2023-04-07T11:32:54.774Z,44.22
2023-04-07T11:34:56.306Z,44.52
2023-04-07T11:36:59.834Z,45.72
2023-04-07T11:39:02.264Z,45.85
2023-04-07T11:41:14.918Z,45.29
2023-04-07T11:43:20.439Z,45.05
2023-04-07T11:45:22.131Z,45.51
2023-04-07T11:47:33.513Z,45.45
2023-04-07T11:49:34.974Z,45.22
2023-04-07T11:51:36.465Z,45.74
2023-04-07T11:53:41.217Z,46.21
2023-04-07T11:55:42.716Z,45.82
2023-04-07T11:57:44.458Z,46.01
2023-04-07T11:59:45.921Z,46.44
2023-04-07T12:01:48.425Z,46.19
2023-04-07T12:04:03.283Z,45.60
2023-04-07T12:06:05.253Z,45.72
2023-04-07T12:08:06.818Z,45.51
2023-04-07T12:10:21.116Z,45.44
2023-04-07T12:12:29.110Z,44.92
2023-04-07T12:14:30.667Z,44.40
2023-04-07T12:16:32.268Z,43.70
2023-04-07T12:18:33.879Z,44.44
2023-04-07T12:20:37.506Z,45.00
2023-04-07T12:22:39.289Z,45.22
2023-04-07T12:24:40.862Z,44.60
2023-04-07T12:26:42.372Z,44.76
2023-04-07T12:28:44.237Z,44.87
2023-04-07T12:30:45.725Z,45.10
2023-04-07T12:32:47.590Z,44.58
2023-04-07T12:34:49.138Z,43.96
2023-04-07T12:36:50.615Z,44.05
2023-04-07T12:38:52.938Z,44.67
2023-04-07T12:40:54.543Z,45.53
2023-04-07T12:42:58.339Z,45.73
2023-04-07T12:45:00.120Z,45.87
2023-04-07T12:47:02.633Z,45.90
2023-04-07T12:49:04.218Z,45.36
2023-04-07T12:51:05.945Z,45.00
2023-04-07T12:53:07.496Z,44.93
2023-04-07T12:55:09.106Z,45.05
2023-04-07T12:57:11.002Z,44.45
2023-04-07T12:59:13.068Z,45.17
2023-04-07T13:01:14.728Z,45.40
2023-04-07T13:03:16.948Z,45.40
2023-04-07T13:05:19.018Z,44.59
2023-04-07T13:07:22.004Z,45.22
2023-04-07T13:09:24.866Z,45.07
2023-04-07T13:11:26.403Z,46.08
2023-04-07T13:13:28.017Z,45.46
2023-04-07T13:15:29.599Z,45.45
2023-04-07T13:17:31.258Z,46.19
2023-04-07T13:19:32.768Z,46.03
2023-04-07T13:21:46.272Z,45.50
2023-04-07T13:23:50.904Z,45.94
2023-04-07T13:25:52.466Z,45.75
2023-04-07T13:27:53.950Z,45.72
2023-04-07T13:29:55.850Z,45.39
2023-04-07T13:32:06.975Z,45.44
2023-04-07T13:34:08.673Z,46.05
2023-04-07T13:36:10.398Z,45.55
2023-04-07T13:38:12.073Z,46.08
2023-04-07T13:40:13.635Z,46.58
2023-04-07T13:42:17.705Z,47.89
2023-04-07T13:44:19.180Z,47.75
2023-04-07T13:46:28.350Z,47.90
2023-04-07T13:48:30.527Z,47.73
2023-04-07T13:50:32.016Z,47.96
2023-04-07T13:52:35.478Z,48.35
2023-04-07T13:54:38.237Z,47.64
2023-04-07T13:56:41.021Z,47.81
2023-04-07T13:58:42.703Z,47.44
2023-04-07T14:00:44.224Z,47.29
2023-04-07T14:02:47.749Z,48.37
2023-04-07T14:04:49.386Z,49.02
2023-04-07T14:06:50.950Z,49.50
2023-04-07T14:08:52.484Z,49.76
2023-04-07T14:10:54.162Z,49.74
2023-04-07T14:12:56.421Z,49.48
2023-04-07T14:14:57.966Z,49.31
2023-04-07T14:16:59.614Z,49.17
2023-04-07T14:19:01.114Z,49.62
2023-04-07T14:21:03.423Z,49.87
2023-04-07T14:23:05.024Z,49.52
2023-04-07T14:25:06.777Z,49.70
2023-04-07T14:27:08.547Z,50.56
2023-04-07T14:29:10.181Z,50.58
2023-04-07T14:31:15.829Z,51.03
2023-04-07T14:33:17.537Z,51.25
2023-04-07T14:35:19.034Z,51.06
2023-04-07T14:37:24.190Z,51.61
2023-04-07T14:39:25.885Z,51.42
2023-04-07T14:41:27.524Z,51.24
2023-04-07T14:43:29.578Z,52.08
2023-04-07T14:45:31.022Z,52.04
2023-04-07T14:47:32.526Z,52.16
2023-04-07T14:49:34.876Z,52.06
2023-04-07T14:51:36.462Z,52.29
2023-04-07T14:53:37.972Z,53.03
2023-04-07T14:55:41.475Z,53.29
2023-04-07T14:57:43.007Z,53.14
2023-04-07T14:59:44.528Z,54.29
2023-04-07T15:01:46.158Z,54.22
2023-04-07T15:03:47.872Z,53.80
2023-04-07T15:05:49.787Z,53.40
2023-04-07T15:07:52.477Z,53.75
2023-04-07T15:09:54.178Z,54.11
2023-04-07T15:11:56.432Z,54.18
2023-04-07T15:13:58.123Z,54.10
2023-04-07T15:16:06.217Z,53.52
2023-04-07T15:18:07.876Z,54.39
2023-04-07T15:20:09.767Z,54.36
2023-04-07T15:22:11.304Z,54.43
2023-04-07T15:24:14.250Z,54.55
2023-04-07T15:26:16.969Z,55.29
2023-04-07T15:28:18.455Z,54.79
2023-04-07T15:30:21.022Z,55.84
2023-04-07T15:32:22.539Z,56.33
2023-04-07T15:34:24.016Z,56.35
2023-04-07T15:36:26.050Z,56.61
2023-04-07T15:38:30.454Z,55.99
2023-04-07T15:40:31.862Z,55.98
2023-04-07T15:42:41.719Z,55.39
2023-04-07T15:44:43.548Z,54.50
2023-04-07T15:46:45.069Z,54.82
2023-04-07T15:48:47.867Z,54.44
2023-04-07T15:50:49.350Z,55.19
2023-04-07T15:52:50.855Z,55.08
2023-04-07T15:54:52.340Z,56.03
2023-04-07T15:56:53.947Z,55.76
2023-04-07T15:58:55.711Z,55.44
2023-04-07T16:00:57.484Z,54.95
2023-04-07T16:02:59.296Z,54.67
2023-04-07T16:05:01.274Z,53.87
2023-04-07T16:07:02.753Z,53.71
2023-04-07T16:09:04.376Z,53.18
2023-04-07T16:11:05.903Z,53.31
2023-04-07T16:13:07.417Z,53.21
2023-04-07T16:15:11.226Z,53.51
2023-04-07T16:17:12.814Z,53.52
2023-04-07T16:19:14.638Z,54.70
2023-04-07T16:21:16.473Z,55.70
2023-04-07T16:23:17.994Z,55.08
2023-04-07T16:25:19.721Z,54.66
2023-04-07T16:27:21.318Z,54.46
2023-04-07T16:29:22.877Z,54.07
2023-04-07T16:31:24.543Z,54.83
2023-04-07T16:33:26.257Z,54.35
2023-04-07T16:35:28.195Z,54.58
2023-04-07T16:37:30.414Z,55.42
2023-04-07T16:39:31.936Z,55.47
2023-04-07T16:41:33.522Z,55.54
2023-04-07T16:43:35.000Z,56.41
2023-04-07T16:45:36.579Z,56.17
2023-04-07T16:47:38.239Z,56.42
2023-04-07T16:49:39.768Z,56.22
2023-04-07T16:51:41.284Z,55.84
2023-04-07T16:53:42.754Z,55.27
2023-04-07T16:55:44.246Z,54.83
2023-04-07T16:57:45.711Z,54.28
2023-04-07T16:59:48.462Z,53.75
2023-04-07T17:01:50.139Z,53.84
2023-04-07T17:03:52.681Z,54.12
2023-04-07T17:05:54.565Z,54.60
2023-04-07T17:07:57.196Z,54.55
2023-04-07T17:09:58.932Z,54.36
2023-04-07T17:12:01.327Z,54.30
2023-04-07T17:14:03.375Z,53.79
2023-04-07T17:16:05.194Z,54.42
2023-04-07T17:18:07.067Z,54.45
2023-04-07T17:20:09.356Z,54.11
2023-04-07T17:22:10.909Z,54.05
2023-04-07T17:24:15.413Z,53.45
2023-04-07T17:26:16.921Z,52.96
2023-04-07T17:28:18.423Z,53.05
2023-04-07T17:30:19.905Z,52.29
2023-04-07T17:32:22.087Z,52.15
2023-04-07T17:34:23.713Z,51.97
2023-04-07T17:36:28.298Z,51.56
2023-04-07T17:38:30.595Z,51.34
2023-04-07T17:40:32.448Z,51.44
2023-04-07T17:42:33.978Z,50.99
2023-04-07T17:44:35.426Z,50.97
2023-04-07T17:46:36.982Z,50.54
2023-04-07T17:48:38.561Z,50.70
2023-04-07T17:50:40.182Z,50.72
2023-04-07T17:52:41.887Z,50.46
2023-04-07T17:54:43.409Z,50.17
2023-04-07T17:56:44.906Z,50.02
2023-04-07T17:58:46.770Z,50.11
2023-04-07T18:00:48.287Z,50.40
2023-04-07T18:02:50.257Z,49.81
2023-04-07T18:04:52.014Z,49.74
2023-04-07T18:06:53.530Z,49.69
2023-04-07T18:08:55.021Z,50.17
2023-04-07T18:10:56.649Z,50.01
2023-04-07T18:12:58.629Z,49.97
2023-04-07T18:15:00.164Z,49.59
2023-04-07T18:17:02.672Z,49.41
2023-04-07T18:19:04.120Z,49.84
2023-04-07T18:21:06.704Z,50.30
2023-04-07T18:23:08.510Z,50.29
2023-04-07T18:25:11.708Z,49.62
2023-04-07T18:27:13.256Z,49.89
2023-04-07T18:29:15.027Z,49.42
2023-04-07T18:31:16.684Z,49.17
2023-04-07T18:33:18.467Z,49.17
2023-04-07T18:35:20.321Z,49.06
2023-04-07T18:37:22.284Z,48.89
2023-04-07T18:39:27.862Z,48.63
2023-04-07T18:41:29.453Z,49.38
2023-04-07T18:43:31.475Z,49.26
2023-04-07T18:45:36.789Z,49.28
2023-04-07T18:47:39.083Z,48.83
2023-04-07T18:49:40.587Z,48.94
2023-04-07T18:51:42.933Z,49.40
2023-04-07T18:53:44.508Z,48.98
2023-04-07T18:55:46.136Z,49.67
2023-04-07T18:57:47.717Z,49.93
2023-04-07T18:59:49.181Z,49.77
2023-04-07T19:01:51.090Z,49.50
2023-04-07T19:03:52.939Z,49.42
2023-04-07T19:05:55.427Z,49.60
2023-04-07T19:07:56.932Z,49.73
2023-04-07T19:09:58.419Z,49.75
2023-04-07T19:11:59.950Z,50.35
2023-04-07T19:14:01.399Z,51.35
2023-04-07T19:16:03.352Z,51.82
2023-04-07T19:18:04.928Z,51.44
2023-04-07T19:20:06.913Z,52.21
2023-04-07T19:22:08.372Z,52.18
2023-04-07T19:24:09.925Z,52.53
2023-04-07T19:26:12.168Z,52.25
2023-04-07T19:28:13.669Z,52.26
2023-04-07T19:30:16.306Z,52.68
2023-04-07T19:32:17.984Z,52.82
2023-04-07T19:34:19.496Z,53.16
2023-04-07T19:36:21.025Z,53.42
2023-04-07T19:38:22.518Z,54.01
2023-04-07T19:40:24.724Z,53.74
2023-04-07T19:42:26.435Z,54.15
2023-04-07T19:44:27.974Z,54.05
2023-04-07T19:46:29.516Z,53.58
2023-04-07T19:48:31.008Z,53.53
2023-04-07T19:50:32.573Z,53.68
2023-04-07T19:52:34.142Z,53.19
2023-04-07T19:54:35.636Z,53.14
2023-04-07T19:56:37.654Z,53.50
2023-04-07T19:58:39.331Z,53.62
2023-04-07T20:00:41.477Z,53.56
2023-04-07T20:02:43.221Z,53.39
2023-04-07T20:04:44.922Z,53.21
2023-04-07T20:06:46.460Z,53.16
2023-04-07T20:08:48.703Z,53.00
2023-04-07T20:10:51.448Z,52.90
2023-04-07T20:12:52.932Z,52.89
2023-04-07T20:14:54.403Z,53.38
2023-04-07T20:16:56.474Z,52.63
2023-04-07T20:18:58.220Z,53.24
2023-04-07T20:21:02.705Z,52.78
2023-04-07T20:23:04.272Z,52.54
2023-04-07T20:25:06.307Z,52.45
2023-04-07T20:27:08.087Z,52.75
2023-04-07T20:29:09.594Z,52.66
2023-04-07T20:31:11.158Z,52.61
2023-04-07T20:33:12.714Z,52.77
2023-04-07T20:35:14.423Z,52.42
2023-04-07T20:37:15.900Z,52.48
2023-04-07T20:39:17.370Z,52.62
2023-04-07T20:41:18.822Z,52.55
2023-04-07T20:43:22.069Z,52.13
2023-04-07T20:45:23.732Z,52.25
2023-04-07T20:47:25.254Z,52.32
2023-04-07T20:49:26.942Z,51.72
2023-04-07T20:51:29.037Z,51.89
2023-04-07T20:53:30.611Z,52.28
2023-04-07T20:55:32.774Z,51.67
2023-04-07T20:57:34.290Z,51.91
2023-04-07T20:59:36.120Z,51.90
2023-04-07T21:01:38.697Z,51.68
2023-04-07T21:03:40.441Z,51.46
2023-04-07T21:05:43.443Z,51.54
2023-04-07T21:07:44.985Z,51.32
2023-04-07T21:09:46.500Z,51.23
2023-04-07T21:11:47.960Z,51.94
2023-04-07T21:13:49.525Z,51.89
2023-04-07T21:15:51.036Z,51.92
2023-04-07T21:17:53.053Z,51.67
2023-04-07T21:19:54.587Z,51.97
2023-04-07T21:21:56.287Z,51.71
2023-04-07T21:23:59.662Z,51.96
2023-04-07T21:26:02.251Z,51.63
2023-04-07T21:28:03.797Z,51.43
2023-04-07T21:30:06.261Z,51.51
2023-04-07T21:32:08.124Z,51.06
2023-04-07T21:34:09.601Z,51.53
2023-04-07T21:36:11.531Z,51.43
2023-04-07T21:38:13.164Z,51.02
2023-04-07T21:40:14.731Z,50.73
2023-04-07T21:42:16.629Z,51.66
2023-04-07T21:44:20.133Z,51.49
2023-04-07T21:46:21.704Z,51.42
2023-04-07T21:48:23.606Z,51.57
2023-04-07T21:50:25.541Z,51.54
2023-04-07T21:52:27.412Z,51.64
2023-04-07T21:54:28.860Z,52.50
2023-04-07T21:56:30.455Z,52.67
2023-04-07T21:58:31.965Z,51.68
2023-04-07T22:00:33.777Z,53.01
2023-04-07T22:02:35.864Z,53.14
2023-04-07T22:04:37.657Z,54.20
2023-04-07T22:06:39.320Z,54.79
2023-04-07T22:08:44.325Z,55.07
2023-04-07T22:10:50.403Z,55.35
2023-04-07T22:12:52.019Z,56.51
2023-04-07T22:14:53.466Z,57.13
2023-04-07T22:16:55.070Z,57.32
2023-04-07T22:18:56.614Z,57.68
2023-04-07T22:20:58.050Z,57.51
2023-04-07T22:22:59.667Z,56.91
2023-04-07T22:25:01.271Z,57.38
2023-04-07T22:27:03.106Z,57.72
2023-04-07T22:29:04.625Z,58.11
2023-04-07T22:31:06.283Z,58.41
2023-04-07T22:33:09.731Z,58.98
2023-04-07T22:35:11.873Z,58.52
2023-04-07T22:37:13.483Z,58.02
2023-04-07T22:39:14.997Z,58.04
2023-04-07T22:41:16.446Z,57.93
2023-04-07T22:43:17.985Z,58.02
2023-04-07T22:45:19.898Z,58.09
2023-04-07T22:47:22.389Z,57.71
2023-04-07T22:49:24.036Z,57.11
2023-04-07T22:51:25.638Z,56.56
2023-04-07T22:53:27.091Z,55.90
2023-04-07T22:55:29.439Z,56.06
2023-04-07T22:57:31.036Z,56.04
2023-04-07T22:59:32.511Z,55.72
2023-04-07T23:01:34.116Z,55.85
2023-04-07T23:03:35.886Z,55.24
2023-04-07T23:05:37.446Z,55.11
2023-04-07T23:07:38.931Z,54.69
2023-04-07T23:09:40.387Z,54.65
2023-04-07T23:11:42.087Z,54.43
2023-04-07T23:13:44.270Z,54.15
2023-04-07T23:15:46.265Z,54.34
2023-04-07T23:17:47.794Z,54.13
2023-04-07T23:19:49.501Z,53.85
2023-04-07T23:21:51.108Z,54.03
2023-04-07T23:23:52.722Z,53.83
2023-04-07T23:25:54.160Z,53.81
2023-04-07T23:27:55.684Z,53.99
2023-04-07T23:29:58.169Z,53.98
2023-04-07T23:31:59.753Z,54.12
2023-04-07T23:34:01.430Z,53.74
2023-04-07T23:36:03.050Z,53.87
2023-04-07T23:38:04.804Z,54.04
2023-04-07T23:40:06.672Z,54.23
2023-04-07T23:42:08.288Z,54.31
2023-04-07T23:44:09.804Z,54.73
2023-04-07T23:46:11.417Z,55.34
2023-04-07T23:48:12.969Z,55.59
2023-04-07T23:50:14.714Z,55.24
2023-04-07T23:52:16.374Z,55.13
2023-04-07T23:54:17.837Z,55.29
2023-04-07T23:56:19.327Z,54.68
2023-04-07T23:58:20.980Z,54.59
